createdAt,value
2018-05-03T00:02:22.321Z,13.70
2018-05-03T00:06:25.058Z,13.70
2018-05-03T00:10:27.882Z,13.80
2018-05-03T00:14:31.414Z,13.80
2018-05-03T00:18:34.168Z,13.80
2018-05-03T00:22:36.914Z,13.80
2018-05-03T00:26:39.662Z,13.80
2018-05-03T00:30:42.498Z,13.60
2018-05-03T00:34:46.242Z,13.60
2018-05-03T00:38:49.052Z,13.60
2018-05-03T00:42:51.753Z,13.50
2018-05-03T00:46:54.516Z,13.40
2018-05-03T00:50:57.254Z,13.40
2018-05-03T00:55:03.264Z,13.30
2018-05-03T00:59:06.051Z,13.20
2018-05-03T01:03:09.633Z,13.20
2018-05-03T01:07:12.333Z,13.20
2018-05-03T01:11:15.063Z,13.10
2018-05-03T01:15:18.570Z,13.00
2018-05-03T01:19:21.447Z,13.00
2018-05-03T01:23:24.177Z,12.90
2018-05-03T01:27:27.787Z,12.90
2018-05-03T01:31:30.533Z,12.80
2018-05-03T01:35:45.299Z,12.90
2018-05-03T01:39:48.107Z,12.70
2018-05-03T01:43:51.782Z,12.70
2018-05-03T01:47:54.589Z,12.60
2018-05-03T01:51:57.365Z,12.50
2018-05-03T01:56:04.737Z,12.40
2018-05-03T02:00:11.466Z,12.40
2018-05-03T02:04:14.214Z,12.30
2018-05-03T02:08:17.078Z,12.20
2018-05-03T02:12:19.786Z,12.10
2018-05-03T02:16:24.589Z,12.10
2018-05-03T02:20:27.345Z,12.00
2018-05-03T02:24:30.145Z,11.90
2018-05-03T02:28:32.897Z,11.90
2018-05-03T02:32:36.700Z,11.80
2018-05-03T02:36:40.280Z,11.60
2018-05-03T02:40:43.084Z,11.60
2018-05-03T02:44:45.833Z,11.60
2018-05-03T02:48:48.653Z,11.50
2018-05-03T02:52:51.381Z,11.50
2018-05-03T02:57:18.157Z,11.40
2018-05-03T03:01:39.814Z,11.50
2018-05-03T03:05:54.502Z,11.30
2018-05-03T03:14:58.484Z,11.30
2018-05-03T03:19:18.935Z,11.40
2018-05-03T03:23:39.442Z,11.40
2018-05-03T03:28:00.057Z,11.50
2018-05-03T03:32:15.466Z,11.60
2018-05-03T03:36:30.847Z,11.60
2018-05-03T03:40:45.499Z,11.60
2018-05-03T03:44:48.225Z,11.70
2018-05-03T03:48:54.670Z,11.70
2018-05-03T03:52:57.421Z,11.70
2018-05-03T03:57:03.514Z,11.50
2018-05-03T04:01:06.424Z,11.50
2018-05-03T04:05:09.379Z,11.50
2018-05-03T04:09:12.218Z,11.50
2018-05-03T04:13:30.151Z,11.50
2018-05-03T04:17:56.510Z,11.40
2018-05-03T04:22:13.294Z,11.80
2018-05-03T04:26:16.271Z,11.80
2018-05-03T04:30:19.074Z,11.70
2018-05-03T04:34:21.889Z,11.80
2018-05-03T04:38:25.414Z,11.80
2018-05-03T04:42:28.145Z,11.90
2018-05-03T04:46:31.634Z,11.90
2018-05-03T04:50:42.679Z,11.90
2018-05-03T04:54:45.660Z,11.90
2018-05-03T04:58:48.721Z,12.00
2018-05-03T05:02:51.459Z,12.10
2018-05-03T05:06:54.301Z,12.00
2018-05-03T05:10:57.042Z,12.00
2018-05-03T05:14:59.778Z,12.10
2018-05-03T05:19:02.518Z,12.20
2018-05-03T05:23:05.233Z,12.30
2018-05-03T05:27:08.017Z,12.40
2018-05-03T05:31:10.772Z,12.60
2018-05-03T05:35:13.504Z,12.80
2018-05-03T05:39:16.434Z,12.80
2018-05-03T05:43:19.420Z,12.90
2018-05-03T05:47:22.973Z,12.90
2018-05-03T05:51:25.716Z,12.90
2018-05-03T05:55:28.469Z,13.10
2018-05-03T05:59:31.410Z,13.20
2018-05-03T06:03:34.275Z,13.40
2018-05-03T06:07:37.023Z,13.40
2018-05-03T06:11:40.496Z,13.70
2018-05-03T06:15:43.283Z,13.70
2018-05-03T06:19:46.005Z,13.90
2018-05-03T06:23:50.677Z,14.10
2018-05-03T06:27:54.170Z,14.40
2018-05-03T06:31:56.992Z,14.40
2018-05-03T06:36:00.490Z,14.70
2018-05-03T06:40:03.317Z,14.70
2018-05-03T06:44:07.286Z,14.90
2018-05-03T06:48:10.038Z,14.90
2018-05-03T06:52:13.762Z,15.10
2018-05-03T06:56:16.499Z,15.00
2018-05-03T07:00:19.240Z,15.10
2018-05-03T07:04:22.851Z,15.50
2018-05-03T07:08:25.567Z,15.50
2018-05-03T07:12:28.318Z,15.60
2018-05-03T07:16:31.333Z,15.60
2018-05-03T07:20:34.163Z,15.70
2018-05-03T07:24:36.967Z,15.90
2018-05-03T07:28:39.659Z,16.00
2018-05-03T07:32:42.503Z,16.20
2018-05-03T07:36:45.290Z,16.40
2018-05-03T07:40:48.039Z,16.50
2018-05-03T07:44:50.884Z,16.60
2018-05-03T07:48:53.712Z,16.80
2018-05-03T07:52:57.207Z,17.20
2018-05-03T07:56:59.970Z,17.10
2018-05-03T08:01:03.825Z,17.40
2018-05-03T08:05:07.448Z,17.50
2018-05-03T08:09:11.038Z,17.80
2018-05-03T08:13:14.364Z,17.90
2018-05-03T08:17:18.253Z,18.30
2018-05-03T08:21:21.725Z,18.50
2018-05-03T08:25:26.268Z,19.40
2018-05-03T08:29:31.126Z,19.30
2018-05-03T08:33:36.782Z,19.70
2018-05-03T08:37:44.462Z,20.80
2018-05-03T08:41:47.506Z,20.80
2018-05-03T08:45:50.275Z,20.80
2018-05-03T08:49:53.027Z,21.20
2018-05-03T08:53:55.784Z,21.80
2018-05-03T08:57:59.287Z,22.40
2018-05-03T09:02:02.029Z,22.40
2018-05-03T09:06:04.753Z,22.70
2018-05-03T09:10:08.422Z,23.10
2018-05-03T09:14:11.924Z,23.40
2018-05-03T09:18:15.494Z,23.30
2018-05-03T09:22:19.072Z,23.80
2018-05-03T09:26:22.702Z,23.40
2018-05-03T09:30:25.424Z,23.30
2018-05-03T09:34:28.953Z,24.50
2018-05-03T09:38:31.696Z,24.40
2018-05-03T09:42:35.298Z,26.90
2018-05-03T09:46:38.130Z,26.90
2018-05-03T09:50:40.929Z,27.70
2018-05-03T09:54:43.637Z,27.20
2018-05-03T09:58:46.369Z,27.80
2018-05-03T10:02:49.076Z,26.80
2018-05-03T10:06:51.842Z,26.00
2018-05-03T10:10:54.544Z,26.80
2018-05-03T10:14:57.363Z,27.90
2018-05-03T10:19:00.131Z,27.60
2018-05-03T10:23:02.939Z,27.50
2018-05-03T10:27:05.731Z,27.00
2018-05-03T10:31:08.442Z,28.30
2018-05-03T10:35:11.147Z,27.90
2018-05-03T10:39:13.877Z,27.60
2018-05-03T10:43:17.461Z,29.60
2018-05-03T10:47:20.238Z,29.60
2018-05-03T10:51:22.988Z,30.40
2018-05-03T10:55:26.540Z,30.90
2018-05-03T10:59:31.072Z,29.00
2018-05-03T11:03:33.791Z,29.00
2018-05-03T11:07:36.499Z,28.30
2018-05-03T11:11:39.191Z,28.50
2018-05-03T11:15:41.910Z,28.30
2018-05-03T11:19:45.745Z,29.30
2018-05-03T11:23:49.280Z,30.60
2018-05-03T11:27:51.999Z,30.60
2018-05-03T11:31:54.768Z,31.00
2018-05-03T11:35:58.225Z,32.40
2018-05-03T11:40:01.019Z,32.20
2018-05-03T11:44:04.097Z,32.20
2018-05-03T11:48:06.812Z,32.60
2018-05-03T11:52:09.743Z,31.80
2018-05-03T11:56:12.484Z,33.00
2018-05-03T12:00:16.030Z,33.00
2018-05-03T12:04:19.224Z,32.70
2018-05-03T12:08:21.962Z,32.00
2018-05-03T12:12:24.773Z,31.40
2018-05-03T12:16:28.286Z,32.60
2018-05-03T12:20:31.776Z,33.50
2018-05-03T12:24:34.516Z,33.30
2018-05-03T12:28:37.315Z,33.90
2018-05-03T12:32:40.849Z,34.00
2018-05-03T12:36:43.637Z,33.90
2018-05-03T12:40:46.537Z,34.90
2018-05-03T12:44:49.314Z,35.70
2018-05-03T12:48:52.832Z,35.60
2018-05-03T12:52:56.445Z,36.10
2018-05-03T12:56:59.322Z,36.10
2018-05-03T13:01:02.044Z,35.40
2018-05-03T13:05:05.512Z,33.60
2018-05-03T13:09:08.254Z,33.50
2018-05-03T13:13:11.870Z,35.40
2018-05-03T13:17:15.471Z,31.70
2018-05-03T13:21:18.280Z,31.70
2018-05-03T13:25:22.954Z,32.00
2018-05-03T13:29:25.672Z,32.00
2018-05-03T13:33:29.371Z,33.40
2018-05-03T13:37:32.189Z,33.30
2018-05-03T13:41:35.056Z,33.20
2018-05-03T13:45:37.848Z,32.20
2018-05-03T13:49:41.372Z,28.30
2018-05-03T13:53:44.111Z,28.20
2018-05-03T13:57:47.700Z,26.40
2018-05-03T14:01:50.517Z,26.40
2018-05-03T14:05:53.223Z,26.20
2018-05-03T14:09:55.967Z,26.60
2018-05-03T14:13:59.536Z,27.40
2018-05-03T14:18:02.308Z,27.40
2018-05-03T14:22:05.969Z,29.20
2018-05-03T14:26:08.852Z,30.90
2018-05-03T14:30:11.824Z,32.60
2018-05-03T14:34:15.942Z,32.80
2018-05-03T14:38:19.581Z,32.70
2018-05-03T14:42:22.350Z,32.40
2018-05-03T14:46:25.163Z,33.10
2018-05-03T14:50:27.956Z,32.00
2018-05-03T14:54:31.299Z,30.70
2018-05-03T14:58:34.096Z,31.10
2018-05-03T15:02:38.968Z,31.30
2018-05-03T15:06:42.874Z,31.40
2018-05-03T15:10:51.520Z,30.50
2018-05-03T15:14:54.474Z,28.80
2018-05-03T15:18:57.230Z,27.00
2018-05-03T15:23:01.285Z,25.10
2018-05-03T15:27:04.031Z,25.10
2018-05-03T15:31:07.548Z,24.60
2018-05-03T15:35:14.144Z,24.60
2018-05-03T15:39:18.184Z,24.30
2018-05-03T15:43:21.937Z,24.10
2018-05-03T15:47:25.019Z,24.10
2018-05-03T15:51:28.822Z,23.30
2018-05-03T15:55:31.879Z,23.30
2018-05-03T15:59:34.901Z,23.40
2018-05-03T16:03:38.954Z,23.40
2018-05-03T16:07:43.625Z,23.20
2018-05-03T16:11:47.006Z,23.20
2018-05-03T16:15:49.857Z,23.00
2018-05-03T16:19:52.918Z,22.70
2018-05-03T16:23:55.746Z,22.40
2018-05-03T16:28:01.028Z,22.20
2018-05-03T16:32:03.826Z,22.20
2018-05-03T16:36:07.542Z,21.90
2018-05-03T16:40:10.270Z,21.90
2018-05-03T16:44:13.877Z,22.00
2018-05-03T16:48:16.742Z,22.00
2018-05-03T16:52:19.644Z,22.00
2018-05-03T16:56:22.374Z,21.80
2018-05-03T17:00:25.344Z,21.70
2018-05-03T17:04:28.088Z,21.60
2018-05-03T17:08:31.744Z,21.30
2018-05-03T17:12:34.490Z,21.20
2018-05-03T17:16:37.598Z,21.00
2018-05-03T17:20:40.432Z,20.70
2018-05-03T17:24:43.973Z,20.10
2018-05-03T17:28:46.773Z,20.10
2018-05-03T17:32:49.918Z,19.90
2018-05-03T17:36:52.783Z,19.90
2018-05-03T17:40:56.403Z,19.50
2018-05-03T17:44:59.159Z,19.50
2018-05-03T17:49:01.946Z,19.30
2018-05-03T17:53:05.675Z,18.90
2018-05-03T17:57:09.205Z,18.70
2018-05-03T18:01:12.741Z,18.60
2018-05-03T18:05:15.581Z,18.50
2018-05-03T18:09:18.486Z,18.20
2018-05-03T18:13:24.199Z,18.00
2018-05-03T18:17:31.122Z,17.70
2018-05-03T18:21:37.262Z,17.70
2018-05-03T18:25:43.523Z,17.50
2018-05-03T18:29:48.502Z,17.20
2018-05-03T18:33:52.431Z,16.90
2018-05-03T18:37:57.160Z,16.90
2018-05-03T18:42:03.019Z,16.80
2018-05-03T18:46:09.870Z,16.70
2018-05-03T18:50:15.158Z,16.50
2018-05-03T18:54:21.604Z,16.40
2018-05-03T18:58:25.397Z,16.30
2018-05-03T19:02:28.357Z,16.30
2018-05-03T19:06:31.039Z,16.30
2018-05-03T19:10:33.789Z,16.10
2018-05-03T19:14:36.693Z,16.00
2018-05-03T19:18:39.452Z,15.90
2018-05-03T19:22:43.073Z,15.80
2018-05-03T19:26:45.838Z,15.80
2018-05-03T19:30:49.310Z,15.60
2018-05-03T19:34:52.871Z,15.60
2018-05-03T19:38:55.672Z,15.50
2018-05-03T19:42:58.454Z,15.60
2018-05-03T19:47:01.995Z,15.50
2018-05-03T19:51:04.737Z,15.40
2018-05-03T19:55:07.470Z,15.40
2018-05-03T19:59:10.985Z,15.30
2018-05-03T20:03:14.523Z,15.20
2018-05-03T20:07:17.244Z,15.20
2018-05-03T20:11:20.093Z,15.20
2018-05-03T20:15:24.031Z,15.10
2018-05-03T20:19:26.772Z,15.10
2018-05-03T20:23:29.909Z,15.10
2018-05-03T20:27:33.448Z,15.00
2018-05-03T20:31:37.965Z,15.00
2018-05-03T20:35:40.877Z,15.00
2018-05-03T20:39:43.746Z,14.90
2018-05-03T20:43:46.500Z,14.80
2018-05-03T20:47:49.388Z,14.80
2018-05-03T20:51:52.194Z,14.90
2018-05-03T20:55:54.966Z,14.80
2018-05-03T20:59:58.491Z,14.90
2018-05-03T21:04:01.339Z,14.90
2018-05-03T21:08:04.154Z,15.00
2018-05-03T21:12:06.913Z,15.10
2018-05-03T21:16:09.787Z,15.20
2018-05-03T21:20:12.531Z,15.20
2018-05-03T21:24:16.457Z,15.30
2018-05-03T21:28:20.137Z,15.40
2018-05-03T21:32:22.913Z,15.40
2018-05-03T21:36:26.591Z,15.60
2018-05-03T21:40:29.370Z,15.60
2018-05-03T21:44:32.290Z,15.70
2018-05-03T21:48:35.142Z,15.70
2018-05-03T21:52:37.961Z,15.70
2018-05-03T21:56:40.888Z,15.70
2018-05-03T22:00:43.611Z,15.80
2018-05-03T22:04:46.423Z,15.80
2018-05-03T22:08:50.112Z,15.80
2018-05-03T22:12:52.832Z,15.70
2018-05-03T22:16:55.578Z,15.70
2018-05-03T22:20:58.607Z,15.60
2018-05-03T22:25:01.350Z,15.50
2018-05-03T22:29:04.129Z,15.40
2018-05-03T22:33:07.438Z,15.30
2018-05-03T22:37:10.943Z,15.20
2018-05-03T22:41:13.713Z,15.20
2018-05-03T22:45:16.577Z,15.20
2018-05-03T22:49:19.367Z,15.10
2018-05-03T22:53:22.145Z,15.10
2018-05-03T22:57:25.665Z,14.80
2018-05-03T23:01:29.381Z,14.80
2018-05-03T23:05:33.198Z,14.80
2018-05-03T23:09:36.954Z,14.70
2018-05-03T23:13:39.887Z,14.70
2018-05-03T23:17:42.858Z,14.60
2018-05-03T23:21:45.598Z,14.60
2018-05-03T23:25:48.320Z,14.70
2018-05-03T23:29:51.859Z,14.50
2018-05-03T23:33:54.760Z,14.50
2018-05-03T23:37:57.494Z,14.40
2018-05-03T23:42:00.292Z,14.40
2018-05-03T23:46:03.049Z,14.30
2018-05-03T23:50:05.899Z,14.30
2018-05-03T23:54:08.701Z,14.20
2018-05-03T23:58:11.652Z,14.10
